Taupo (NZAP)

Aerodrome — Elev 1335
New Zealand
S038.44.22.999 E176.05.03.998
Loading chart...

Current Weather

NZAP 271700Z 06003KT 30KM SCT085 00/00 Q1023 RMK ALT VATSIM USE ONLY

Published 37 minutes ago

Airport Activity

Loading chart...
Loading chart...

Positions

CallsignRadio Name / Freq / Voice Room / TypeFrequencyVoice RoomType
NZCH-B_CTR Bay Approach
119.500
nzch-b_ctr
119.500nzch-b_ctr

Charts